This is the latest recevied weather packets stored in our database for station/object IZ6SAC-13. If no packets are shown the sender has not sent any weather packets the latest 10 day(s).
| Time | Temp. | Humidity | Pressure | Rain* | Wind** | Luminosity | Snow |
|---|---|---|---|---|---|---|---|
| 1777446918 | 23.89° C | 47% | 1015.9 hPa | 0 mm | - | - | - |
| 1777445125 | 21.67° C | 47% | 1015.8 hPa | 0 mm | - | - | - |
| 1777443331 | 19.44° C | 51% | 1015.8 hPa | 0 mm | - | - | - |
| 1777441536 | 17.78° C | 57% | 1015.6 hPa | 0 mm | - | - | - |
| 1777439721 | 16.11° C | 57% | 1015.6 hPa | 0 mm | - | - | - |
| 1777437927 | 14.44° C | 64% | 1015.4 hPa | 0 mm | - | - | - |
| 1777436133 | 12.78° C | 72% | 1015.3 hPa | 0 mm | - | - | - |
| 1777434317 | 13.33° C | 70% | 1015 hPa | 0 mm | - | - | - |
| 1777432523 | 13.33° C | 71% | 1015.1 hPa | 0 mm | - | - | - |
| 1777430729 | 13.89° C | 71% | 1015.1 hPa | 0 mm | - | - | - |
| 1777428934 | 14.44° C | 68% | 1015.1 hPa | 0 mm | - | - | - |
| 1777427119 | 14.44° C | 69% | 1015 hPa | 0 mm | - | - | - |
| 1777425322 | 15° C | 67% | 1014.9 hPa | 0 mm | - | - | - |
| 1777423525 | 15.56° C | 68% | 1014.9 hPa | 0 mm | - | - | - |
| 1777421731 | 15° C | 71% | 1014.9 hPa | 0 mm | - | - | - |
| 1777419916 | 15.56° C | 72% | 1014.9 hPa | 0 mm | - | - | - |
| 1777418122 | 16.11° C | 71% | 1015.1 hPa | 0 mm | - | - | - |
| 1777417522 | 16.67° C | 70% | 1015 hPa | 0 mm | - | - | - |
| 1777416936 | 16.11° C | 71% | 1015.1 hPa | 0 mm | - | - | - |
| 1777416036 | 16.11° C | 73% | 1015 hPa | 0 mm | - | - | - |
| 1777415734 | 15.56° C | 75% | 1015.2 hPa | 0 mm | - | - | - |
| 1777415119 | 15.56° C | 76% | 1015.2 hPa | 0 mm | - | - | - |
| 1777414529 | 15.56° C | 78% | 1015 hPa | 0 mm | - | - | - |
| 1777414222 | 15° C | 79% | 1015.2 hPa | 0 mm | - | - | - |
| 1777413933 | 15.56° C | 80% | 1015.1 hPa | 0 mm | - | - | - |
* Rain latest hour (hover to see other rain measurements)
** Current wind speed in m/s (hover to see current wind gust speed)